^^
Datos históricos de la estación: Murcia-Puente Tocinos
Diario Informe para Enero 30, 2019 Unidades:  Métrico    Ingés   Ambas
Diario Semanal Mensual Anual
  Máxima: Mínima: Promedio:
Temperatura: 25 °C 16.2 °C 20.1 °C
Punto de rocio: 12.6 °C 8.6 °C 10.8 °C
Humedad: 72% 36% 56%
Velocidad viento: 14.8km/h 2.2km/h 7km/h
Racha viento: 30.6km/h - -
Viento- - SSE
Presión: 1024.1 hPa 1021.9 hPa -
Precipitación: 0.0 mm    
 
 
Tabla de datos para Enero 30, 2019
Hora Temperatura Punto de rocio Presión Viento Velocidad viento Racha viento Humedad Intensidad lluvia(por hora) Nubes
00:04 17.8 °C 10.7 °C 1022.4 hPa ENE 6.5 km/h 9.7 km/h 63% 0.0 mm
00:09 17.8 °C 10.7 °C 1022.4 hPa ENE 5.3 km/h 6.4 km/h 63% 0.0 mm
00:14 17.8 °C 10.7 °C 1022.4 hPa NE 3.2 km/h 7.4 km/h 63% 0.0 mm
00:19 17.8 °C 10.8 °C 1022.5 hPa NE 3.4 km/h 8.4 km/h 63.7% 0.0 mm
00:24 17.7 °C 10.9 °C 1022.5 hPa NE 3.9 km/h 11.1 km/h 64.5% 0.0 mm
00:29 17.7 °C 11.1 °C 1022.5 hPa NE 3.9 km/h 11.3 km/h 65% 0.0 mm
00:34 17.7 °C 11.1 °C 1022.6 hPa NE 6.3 km/h 9.7 km/h 65.4% 0.0 mm
00:39 17.7 °C 11.3 °C 1022.6 hPa NE 5.9 km/h 9.3 km/h 66% 0.0 mm
00:44 17.7 °C 11.3 °C 1022.6 hPa NE 5 km/h 9.7 km/h 66% 0.0 mm
00:49 17.6 °C 11.2 °C 1022.7 hPa NE 5.3 km/h 9.7 km/h 66% 0.0 mm
00:54 17.6 °C 11.3 °C 1022.7 hPa NE 5.8 km/h 8.4 km/h 66.6% 0.0 mm
00:59 17.5 °C 11.2 °C 1022.7 hPa NNE 5.3 km/h 8 km/h 66.7% 0.0 mm
01:04 17.4 °C 11.2 °C 1022.7 hPa North 4.6 km/h 4.8 km/h 66.9% 0.0 mm
01:09 17.4 °C 11.2 °C 1022.7 hPa North 3.8 km/h 4.8 km/h 67% 0.0 mm
01:14 17.4 °C 11.2 °C 1022.7 hPa North 2.2 km/h 5.8 km/h 67% 0.0 mm
01:19 17.4 °C 11.2 °C 1022.8 hPa NO 2.6 km/h 9.5 km/h 67% 0.0 mm
01:24 17.4 °C 11.2 °C 1022.8 hPa ONO 3.2 km/h 9.7 km/h 67% 0.0 mm
01:29 17.3 °C 11.1 °C 1022.8 hPa NO 3.7 km/h 8 km/h 67% 0.0 mm
01:34 17.3 °C 11.1 °C 1022.8 hPa NO 4.7 km/h 8.4 km/h 67% 0.0 mm
01:39 17.3 °C 11.1 °C 1022.8 hPa NO 4.4 km/h 8 km/h 67% 0.0 mm
01:44 17.2 °C 11.1 °C 1022.8 hPa NO 3.9 km/h 8 km/h 67% 0.0 mm
01:49 17.2 °C 11 °C 1022.8 hPa ONO 3.6 km/h 7.4 km/h 67% 0.0 mm
01:54 17.2 °C 11 °C 1022.8 hPa NO 3.2 km/h 8 km/h 67% 0.0 mm
01:59 17.3 °C 11.1 °C 1022.8 hPa NO 2.8 km/h 4.8 km/h 67% 0.0 mm
02:04 17.3 °C 11.1 °C 1022.8 hPa NO 2.2 km/h 5.6 km/h 67% 0.0 mm
02:09 17.3 °C 11.1 °C 1022.8 hPa NO 2.2 km/h 5 km/h 67% 0.0 mm
02:14 17.3 °C 11.1 °C 1022.8 hPa NO 2.2 km/h 5.6 km/h 67% 0.0 mm
02:19 17.3 °C 11.1 °C 1022.8 hPa NO 2.2 km/h 4.8 km/h 67% 0.0 mm
02:24 17.3 °C 11.1 °C 1022.7 hPa NO 2.2 km/h 7.4 km/h 67% 0.0 mm
02:29 17.3 °C 11.1 °C 1022.7 hPa NO 2.5 km/h 8 km/h 67% 0.0 mm
02:34 17.3 °C 11.1 °C 1022.7 hPa NO 2.9 km/h 6.4 km/h 67% 0.0 mm
02:39 17.3 °C 11.3 °C 1022.7 hPa NO 3 km/h 7.4 km/h 67.8% 0.0 mm
02:44 17.2 °C 11.2 °C 1022.7 hPa ONO 3.2 km/h 8 km/h 68% 0.0 mm
02:49 17.1 °C 11.3 °C 1022.7 hPa NO 3.8 km/h 8 km/h 68.7% 0.0 mm
02:54 17.1 °C 11.3 °C 1022.6 hPa NO 4.7 km/h 8 km/h 69% 0.0 mm
02:59 16.9 °C 11.2 °C 1022.6 hPa NO 4.3 km/h 8.4 km/h 69% 0.0 mm
03:04 16.9 °C 11.1 °C 1022.6 hPa NO 3.9 km/h 8 km/h 68.6% 0.0 mm
03:09 16.9 °C 10.9 °C 1022.6 hPa NO 3.9 km/h 8 km/h 68% 0.0 mm
03:14 16.9 °C 10.9 °C 1022.6 hPa NO 3.9 km/h 8 km/h 68% 0.0 mm
03:19 16.8 °C 10.8 °C 1022.6 hPa NO 3.3 km/h 7.6 km/h 68% 0.0 mm
03:24 16.8 °C 11.2 °C 1022.6 hPa SE 2.2 km/h 11.1 km/h 69.7% 0.0 mm
03:29 16.8 °C 11.5 °C 1022.6 hPa ESE 2.8 km/h 11.3 km/h 71% 0.0 mm
03:34 16.8 °C 11.6 °C 1022.6 hPa ESE 3.9 km/h 4.8 km/h 71.4% 0.0 mm
03:39 16.8 °C 11.8 °C 1022.4 hPa ESE 3.6 km/h 5.6 km/h 72% 0.0 mm
03:44 16.8 °C 11.7 °C 1022.4 hPa ESE 3.2 km/h 5 km/h 72% 0.0 mm
03:49 16.8 °C 11.7 °C 1022.5 hPa ESE 2.9 km/h 7.4 km/h 72% 0.0 mm
03:54 16.8 °C 11.7 °C 1022.5 hPa SE 2.2 km/h 8 km/h 71.9% 0.0 mm
03:59 16.8 °C 11.5 °C 1022.5 hPa Sur 2.9 km/h 8 km/h 71% 0.0 mm
04:04 16.7 °C 11.4 °C 1022.5 hPa Sur 3.9 km/h 8 km/h 71% 0.0 mm
04:09 16.7 °C 11.4 °C 1022.5 hPa Sur 3.9 km/h 8 km/h 71% 0.0 mm
04:14 16.7 °C 11.3 °C 1022.5 hPa Sur 3.9 km/h 8 km/h 70.8% 0.0 mm
04:19 16.7 °C 11.2 °C 1022.5 hPa Sur 4.1 km/h 8.4 km/h 70% 0.0 mm
04:24 16.7 °C 11.2 °C 1022.4 hPa SSO 4.7 km/h 8 km/h 70% 0.0 mm
04:29 16.8 °C 11.3 °C 1022.4 hPa OSO 4.4 km/h 8 km/h 69.9% 0.0 mm
04:34 16.8 °C 11.1 °C 1022.4 hPa OSO 3.9 km/h 6.4 km/h 69% 0.0 mm
04:39 16.8 °C 11 °C 1022.4 hPa SSO 3.5 km/h 11.1 km/h 68.7% 0.0 mm
04:44 16.7 °C 10.8 °C 1022.4 hPa SO 2.9 km/h 11.3 km/h 68% 0.0 mm
04:49 16.7 °C 10.8 °C 1022.5 hPa SO 4.2 km/h 11.3 km/h 68% 0.0 mm
04:54 16.7 °C 10.7 °C 1022.5 hPa OSO 6.5 km/h 10 km/h 67.6% 0.0 mm
04:59 16.6 °C 10.5 °C 1022.5 hPa OSO 5.9 km/h 9.7 km/h 67% 0.0 mm
05:04 16.6 °C 10.4 °C 1022.5 hPa OSO 5 km/h 9.7 km/h 67% 0.0 mm
05:09 16.6 °C 10.4 °C 1022.5 hPa OSO 4.9 km/h 8.4 km/h 67% 0.0 mm
05:14 16.5 °C 10.3 °C 1022.5 hPa SO 4.7 km/h 8 km/h 67% 0.0 mm
05:19 16.5 °C 10.3 °C 1022.5 hPa SO 4.1 km/h 8 km/h 67% 0.0 mm
05:24 16.4 °C 10.3 °C 1022.5 hPa SO 3.2 km/h 7.4 km/h 67% 0.0 mm
05:29 16.4 °C 10.3 °C 1022.5 hPa SO 3.1 km/h 8 km/h 67% 0.0 mm
05:34 16.4 °C 10.3 °C 1022.5 hPa SO 2.9 km/h 8.7 km/h 67% 0.0 mm
05:39 16.5 °C 10.3 °C 1022.4 hPa SSO 3.5 km/h 9.7 km/h 67% 0.0 mm
05:44 16.5 °C 10.3 °C 1022.4 hPa SSO 4.7 km/h 9.7 km/h 67% 0.0 mm
05:49 16.6 °C 10.4 °C 1022.5 hPa SO 4.7 km/h 9.7 km/h 67% 0.0 mm
05:54 16.6 °C 10.4 °C 1022.5 hPa SO 4.7 km/h 9.7 km/h 67% 0.0 mm
05:59 16.6 °C 10.4 °C 1022.5 hPa OSO 5.1 km/h 10 km/h 67% 0.0 mm
06:04 16.6 °C 10.3 °C 1022.6 hPa SO 5.8 km/h 10 km/h 66.5% 0.0 mm
06:09 16.6 °C 10.2 °C 1022.6 hPa SO 5.5 km/h 11.1 km/h 66% 0.0 mm
06:14 16.6 °C 10.3 °C 1022.6 hPa SO 5 km/h 11.3 km/h 66.6% 0.0 mm
06:19 16.5 °C 10.3 °C 1022.6 hPa OSO 5.5 km/h 9.7 km/h 66.9% 0.0 mm
06:24 16.5 °C 10.3 °C 1022.6 hPa SO 6.5 km/h 9.7 km/h 67% 0.0 mm
06:29 16.5 °C 10.3 °C 1022.6 hPa SO 5.8 km/h 9.5 km/h 67% 0.0 mm
06:34 16.5 °C 10.3 °C 1022.8 hPa OSO 4.7 km/h 9.7 km/h 66.7% 0.0 mm
06:39 16.4 °C 10.1 °C 1022.8 hPa Oeste 4.7 km/h 8 km/h 66% 0.0 mm
06:44 16.4 °C 10.1 °C 1022.8 hPa SO 4.7 km/h 9.3 km/h 66% 0.0 mm
06:49 16.3 °C 10 °C 1022.8 hPa OSO 4.4 km/h 9.7 km/h 66% 0.0 mm
06:54 16.3 °C 9.9 °C 1022.8 hPa OSO 3.9 km/h 9.3 km/h 66% 0.0 mm
06:59 16.3 °C 9.9 °C 1022.8 hPa Oeste 3.9 km/h 9.7 km/h 66% 0.0 mm
07:04 16.3 °C 9.9 °C 1023.0 hPa SO 3.9 km/h 8.4 km/h 65.9% 0.0 mm
07:09 16.3 °C 10 °C 1023.0 hPa SSO 4.1 km/h 8.4 km/h 66.7% 0.0 mm
07:14 16.2 °C 10.1 °C 1023.0 hPa SSO 4.7 km/h 8 km/h 67% 0.0 mm
07:19 16.2 °C 10.1 °C 1023.2 hPa Sur 4.4 km/h 7.6 km/h 67% 0.0 mm
07:24 16.2 °C 10.1 °C 1023.2 hPa Sur 3.9 km/h 8 km/h 67% 0.0 mm
07:29 16.3 °C 10.2 °C 1023.2 hPa SSE 3.3 km/h 8 km/h 67% 0.0 mm
07:34 16.4 °C 10.1 °C 1023.3 hPa Sur 2.2 km/h 8 km/h 66.2% 0.0 mm
07:39 16.4 °C 10 °C 1023.3 hPa Sur 3.3 km/h 8.4 km/h 66% 0.0 mm
07:44 16.4 °C 10.3 °C 1023.3 hPa Sur 5 km/h 8 km/h 67% 0.0 mm
07:49 16.4 °C 10.3 °C 1023.3 hPa Sur 5 km/h 8 km/h 67% 0.0 mm
07:54 16.4 °C 10.5 °C 1023.3 hPa SSO 5 km/h 9.3 km/h 67.9% 0.0 mm
07:59 16.6 °C 10.6 °C 1023.3 hPa SSO 5 km/h 9.7 km/h 68% 0.0 mm
08:04 16.7 °C 10.6 °C 1023.5 hPa SO 5 km/h 8.4 km/h 67.4% 0.0 mm
08:09 16.7 °C 10.5 °C 1023.5 hPa OSO 4.4 km/h 8 km/h 66.8% 0.0 mm
08:14 16.8 °C 10.5 °C 1023.5 hPa ONO 3.2 km/h 9.5 km/h 66.3% 0.0 mm
08:19 16.8 °C 10.4 °C 1023.5 hPa ONO 3.5 km/h 9.7 km/h 66% 0.0 mm
08:24 17 °C 10.6 °C 1023.5 hPa Oeste 3.9 km/h 5.8 km/h 66% 0.0 mm
08:29 17.2 °C 10.6 °C 1023.5 hPa ONO 3.5 km/h 7.6 km/h 65.3% 0.0 mm
08:34 17.3 °C 10.6 °C 1023.6 hPa Oeste 2.9 km/h 8.4 km/h 64.7% 0.0 mm
08:39 17.4 °C 10.5 °C 1023.6 hPa OSO 3 km/h 8 km/h 64% 0.0 mm
08:44 17.4 °C 10.5 °C 1023.6 hPa Oeste 3.2 km/h 8 km/h 64% 0.0 mm
08:49 17.4 °C 10.5 °C 1023.8 hPa Oeste 3.8 km/h 9.3 km/h 63.9% 0.0 mm
08:54 17.4 °C 10.4 °C 1023.8 hPa ONO 4.7 km/h 10 km/h 63.5% 0.0 mm
08:59 17.6 °C 10.4 °C 1023.8 hPa NO 4.8 km/h 10 km/h 63% 0.0 mm
09:04 17.7 °C 10.3 °C 1023.8 hPa Oeste 5 km/h 9.7 km/h 62.1% 0.0 mm
09:09 17.7 °C 10.4 °C 1023.8 hPa Oeste 4.9 km/h 9.5 km/h 62% 0.0 mm
09:14 17.8 °C 10.3 °C 1023.8 hPa ONO 4.7 km/h 9.7 km/h 61.6% 0.0 mm
09:19 17.8 °C 10.2 °C 1024.0 hPa OSO 4.8 km/h 9.7 km/h 61% 0.0 mm
09:24 18.1 °C 10.4 °C 1024.0 hPa SO 5 km/h 8 km/h 60.8% 0.0 mm
09:29 18.3 °C 10.4 °C 1024.0 hPa SO 4.6 km/h 8.4 km/h 60% 0.0 mm
09:34 18.5 °C 10.6 °C 1024.0 hPa Oeste 3.9 km/h 8.4 km/h 60% 0.0 mm
09:39 18.6 °C 10.9 °C 1024.0 hPa Sur 4.2 km/h 8 km/h 60.8% 0.0 mm
09:44 18.6 °C 10.9 °C 1024.0 hPa OSO 4.7 km/h 8 km/h 61% 0.0 mm
09:49 18.7 °C 11 °C 1024.1 hPa ONO 4.4 km/h 11.1 km/h 60.9% 0.0 mm
09:54 19 °C 11.2 °C 1024.1 hPa Oeste 3.9 km/h 11.3 km/h 60.5% 0.0 mm
09:59 19.2 °C 11.3 °C 1024.1 hPa OSO 4.2 km/h 9.7 km/h 60.5% 0.0 mm
10:04 19.3 °C 11.6 °C 1024.1 hPa Oeste 4.7 km/h 9.7 km/h 61.2% 0.0 mm
10:09 19.6 °C 11.8 °C 1024.0 hPa North 4.2 km/h 10 km/h 60.8% 0.0 mm
10:14 19.7 °C 11.8 °C 1024.0 hPa ONO 3.2 km/h 9.7 km/h 60.6% 0.0 mm
10:19 19.7 °C 11.9 °C 1024.1 hPa ONO 3.7 km/h 9.7 km/h 60.6% 0.0 mm
10:24 19.8 °C 12 °C 1024.1 hPa ONO 4.7 km/h 8 km/h 60.6% 0.0 mm
10:29 20.2 °C 12.1 °C 1024.1 hPa SE 4 km/h 8.7 km/h 59.9% 0.0 mm
10:34 20.5 °C 12.1 °C 1024.1 hPa Este 2.9 km/h 10.3 km/h 58.4% 0.0 mm
10:39 20.6 °C 11.9 °C 1024.1 hPa ENE 4.2 km/h 11.3 km/h 57.6% 0.0 mm
10:44 20.5 °C 11.8 °C 1024.1 hPa NNE 6.5 km/h 11.3 km/h 57.7% 0.0 mm
10:49 20.7 °C 11.9 °C 1024.1 hPa ESE 5.9 km/h 11.1 km/h 57.2% 0.0 mm
10:54 20.8 °C 11.9 °C 1024.1 hPa ESE 5 km/h 11.3 km/h 56.7% 0.0 mm
10:59 21.1 °C 12 °C 1024.1 hPa NE 4.3 km/h 11.1 km/h 56.1% 0.0 mm
11:04 21.1 °C 11.9 °C 1024.1 hPa NE 3.2 km/h 13 km/h 55.7% 0.0 mm
11:09 20.9 °C 11.8 °C 1024.0 hPa NNE 4.6 km/h 13 km/h 56% 0.0 mm
11:14 20.9 °C 11.8 °C 1024.0 hPa NNO 6.9 km/h 10 km/h 56% 0.0 mm
11:19 20.9 °C 11.8 °C 1024.0 hPa North 6.3 km/h 9.7 km/h 56% 0.0 mm
11:24 21.3 °C 12.1 °C 1024.0 hPa ENE 5 km/h 8 km/h 55.9% 0.0 mm
11:29 21.6 °C 12.1 °C 1024.0 hPa NE 4.6 km/h 15.6 km/h 54.8% 0.0 mm
11:34 21.5 °C 11.8 °C 1024.0 hPa North 3.9 km/h 16.1 km/h 54.1% 0.0 mm
11:39 21.4 °C 11.9 °C 1024.0 hPa NNO 4.5 km/h 12.9 km/h 54.6% 0.0 mm
11:44 21.4 °C 12 °C 1024.0 hPa NNO 5.8 km/h 9.7 km/h 55% 0.0 mm
11:49 21.7 °C 12 °C 1024.1 hPa NE 5.1 km/h 11.1 km/h 54.2% 0.0 mm
11:54 21.8 °C 11.9 °C 1024.1 hPa NO 3.9 km/h 11.3 km/h 53.4% 0.0 mm
11:59 21.8 °C 12 °C 1024.1 hPa North 4.3 km/h 13.7 km/h 53.7% 0.0 mm
12:04 21.9 °C 12 °C 1024.1 hPa North 5 km/h 18.5 km/h 53.4% 0.0 mm
12:09 22 °C 12 °C 1023.9 hPa SSE 5.3 km/h 19.3 km/h 53% 0.0 mm
12:14 22.2 °C 12 °C 1023.9 hPa SSE 5.8 km/h 16.1 km/h 52.4% 0.0 mm
12:19 22.1 °C 11.9 °C 1023.9 hPa OSO 6.2 km/h 13 km/h 52.4% 0.0 mm
12:24 22 °C 12 °C 1023.9 hPa North 6.9 km/h 16.7 km/h 53% 0.0 mm
12:29 22.2 °C 12 °C 1023.9 hPa NE 7.4 km/h 19 km/h 52.4% 0.0 mm
12:34 22.1 °C 11.9 °C 1023.9 hPa Este 8.4 km/h 19.3 km/h 52.3% 0.0 mm
12:39 22.2 °C 12 °C 1023.8 hPa NE 8.8 km/h 19.8 km/h 52.6% 0.0 mm
12:44 22.1 °C 11.9 °C 1023.8 hPa NNE 9.5 km/h 20.9 km/h 52.4% 0.0 mm
12:49 22.2 °C 11.9 °C 1023.8 hPa NNO 9.5 km/h 20.9 km/h 52.1% 0.0 mm
12:54 22.3 °C 11.8 °C 1023.5 hPa NE 9.5 km/h 20.4 km/h 51.3% 0.0 mm
12:59 22.5 °C 11.9 °C 1023.5 hPa NE 9.7 km/h 20.9 km/h 51% 0.0 mm
13:04 22.8 °C 11.9 °C 1023.5 hPa ENE 10 km/h 19.3 km/h 50.3% 0.0 mm
13:09 23.1 °C 12.1 °C 1023.4 hPa NNE 8.5 km/h 19.3 km/h 49.9% 0.0 mm
13:14 23.2 °C 12.1 °C 1023.4 hPa NNE 5.8 km/h 19.3 km/h 49.6% 0.0 mm
13:19 23.2 °C 12 °C 1023.4 hPa NE 7.2 km/h 22.2 km/h 49.2% 0.0 mm
13:24 23.4 °C 11.9 °C 1023.3 hPa ENE 9.5 km/h 22.5 km/h 48.6% 0.0 mm
13:29 23.6 °C 11.8 °C 1023.3 hPa ENE 9.7 km/h 16.7 km/h 47.6% 0.0 mm
13:34 23.4 °C 11.7 °C 1023.3 hPa Este 10 km/h 16.7 km/h 47.8% 0.0 mm
13:39 23.3 °C 11.3 °C 1023.2 hPa NE 10.1 km/h 22.2 km/h 46.7% 0.0 mm
13:44 23.3 °C 11 °C 1023.2 hPa Este 10.3 km/h 22.5 km/h 46.1% 0.0 mm
13:49 23.3 °C 11.3 °C 1023.2 hPa NE 10.2 km/h 18 km/h 46.8% 0.0 mm
13:54 23.5 °C 11 °C 1023.1 hPa ENE 10 km/h 22.2 km/h 45.3% 0.0 mm
13:59 23.7 °C 10.9 °C 1023.1 hPa NE 10.1 km/h 22.5 km/h 44.7% 0.0 mm
14:04 23.8 °C 10.9 °C 1023.1 hPa ENE 10.3 km/h 19.3 km/h 44.2% 0.0 mm
14:09 23.9 °C 10.7 °C 1022.9 hPa ENE 9.6 km/h 19.3 km/h 43.5% 0.0 mm
14:14 24 °C 10.5 °C 1022.9 hPa NE 8.4 km/h 24.1 km/h 42.5% 0.0 mm
14:19 23.9 °C 10.4 °C 1022.9 hPa ENE 9.8 km/h 24.1 km/h 42.7% 0.0 mm
14:24 24 °C 10 °C 1022.8 hPa NNE 12.2 km/h 25.9 km/h 41.2% 0.0 mm
14:29 24.1 °C 9.7 °C 1022.8 hPa ENE 12.1 km/h 25.7 km/h 39.9% 0.0 mm
14:34 24.3 °C 9.6 °C 1022.8 hPa NE 11.9 km/h 23.7 km/h 39.3% 0.0 mm
14:39 24.4 °C 9.6 °C 1022.5 hPa NE 12.6 km/h 27.8 km/h 39% 0.0 mm
14:44 24.7 °C 9.6 °C 1022.5 hPa NE 13.7 km/h 27.4 km/h 38.4% 0.0 mm
14:49 24.7 °C 9.3 °C 1022.6 hPa ENE 12.5 km/h 22.5 km/h 37.7% 0.0 mm
14:54 24.8 °C 8.9 °C 1022.6 hPa NE 10.3 km/h 20.9 km/h 36.5% 0.0 mm
14:59 24.7 °C 8.9 °C 1022.6 hPa ENE 10.6 km/h 23.7 km/h 36.7% 0.0 mm
15:04 24.6 °C 9 °C 1022.6 hPa ENE 11.1 km/h 24.1 km/h 37.1% 0.0 mm
15:09 24.7 °C 8.8 °C 1022.5 hPa ESE 11.5 km/h 24.1 km/h 36.6% 0.0 mm
15:14 24.7 °C 9 °C 1022.5 hPa Este 12.2 km/h 23.7 km/h 37% 0.0 mm
15:19 24.6 °C 9 °C 1022.5 hPa Este 12.1 km/h 24.1 km/h 37.1% 0.0 mm
15:24 24.7 °C 9.4 °C 1022.5 hPa ESE 11.9 km/h 29.6 km/h 38.2% 0.0 mm
15:29 24.6 °C 9.4 °C 1022.5 hPa SE 12.7 km/h 29 km/h 38% 0.0 mm
15:34 24.6 °C 9.5 °C 1022.5 hPa SE 14 km/h 24.1 km/h 38.4% 0.0 mm
15:39 24.5 °C 9.3 °C 1022.5 hPa ENE 13.3 km/h 24.1 km/h 38.1% 0.0 mm
15:44 24.4 °C 9.3 °C 1022.5 hPa Este 11.9 km/h 22.2 km/h 38.2% 0.0 mm
15:49 24.3 °C 9.1 °C 1022.5 hPa ESE 11.6 km/h 22.5 km/h 38% 0.0 mm
15:54 24.2 °C 9.1 °C 1022.5 hPa Este 11.1 km/h 20.9 km/h 38.2% 0.0 mm
15:59 24.4 °C 9.5 °C 1022.5 hPa Este 10.1 km/h 18.5 km/h 38.8% 0.0 mm
16:04 24.8 °C 9.5 °C 1022.5 hPa Este 8.4 km/h 19.3 km/h 38% 0.0 mm
16:09 24.9 °C 9.2 °C 1022.3 hPa Este 8.8 km/h 19.3 km/h 37% 0.0 mm
16:14 24.8 °C 9.1 °C 1022.3 hPa Este 9.5 km/h 19.3 km/h 36.9% 0.0 mm
16:19 24.7 °C 9 °C 1022.4 hPa ENE 9.5 km/h 20.9 km/h 36.9% 0.0 mm
16:24 24.7 °C 9.1 °C 1022.4 hPa ENE 9.5 km/h 20.9 km/h 37% 0.0 mm
16:29 24.7 °C 9.1 °C 1022.4 hPa ESE 10.1 km/h 22.5 km/h 37% 0.0 mm
16:34 24.7 °C 9 °C 1022.4 hPa ESE 11.1 km/h 22.5 km/h 37% 0.0 mm
16:39 24.7 °C 9.1 °C 1022.3 hPa ESE 11.5 km/h 24.1 km/h 37.3% 0.0 mm
16:44 24.6 °C 9 °C 1022.3 hPa ESE 12.2 km/h 24.1 km/h 37% 0.0 mm
16:49 24.7 °C 8.8 °C 1022.3 hPa ESE 11.8 km/h 24.5 km/h 36.6% 0.0 mm
16:54 24.7 °C 8.8 °C 1022.3 hPa ESE 11.1 km/h 24.1 km/h 36.4% 0.0 mm
16:59 24.7 °C 8.6 °C 1022.3 hPa SE 11.4 km/h 24.1 km/h 36% 0.0 mm
17:04 24.7 °C 8.7 °C 1022.3 hPa SE 11.9 km/h 17.2 km/h 36% 0.0 mm
17:09 24.8 °C 8.9 °C 1022.3 hPa ESE 11.2 km/h 20.4 km/h 36.4% 0.0 mm
17:14 24.9 °C 8.8 °C 1022.3 hPa SE 10 km/h 20.9 km/h 36% 0.0 mm
17:19 24.9 °C 8.8 °C 1022.3 hPa SE 10.1 km/h 20.4 km/h 36% 0.0 mm
17:24 24.9 °C 9 °C 1022.1 hPa Este 10.3 km/h 22.2 km/h 36.3% 0.0 mm
17:29 24.9 °C 9 °C 1022.1 hPa ESE 10.6 km/h 22.5 km/h 36.5% 0.0 mm
17:34 25 °C 9.2 °C 1022.1 hPa ESE 11.1 km/h 20.4 km/h 36.8% 0.0 mm
17:39 25 °C 9.3 °C 1022.1 hPa Este 10.7 km/h 20.9 km/h 37% 0.0 mm
17:44 24.8 °C 9.4 °C 1022.1 hPa Este 10 km/h 19.3 km/h 37.9% 0.0 mm
17:49 24.7 °C 9.5 °C 1022.1 hPa Este 10.8 km/h 24.1 km/h 38.3% 0.0 mm
17:54 24.6 °C 9.7 °C 1022.1 hPa Este 12.2 km/h 24.1 km/h 39% 0.0 mm
17:59 24.6 °C 9.8 °C 1022.1 hPa ESE 11.5 km/h 20.4 km/h 39.1% 0.0 mm
18:04 24.5 °C 10.1 °C 1022.1 hPa ESE 10.3 km/h 23.3 km/h 40% 0.0 mm
18:09 24.4 °C 10 °C 1022.0 hPa ESE 11 km/h 24.5 km/h 40.3% 0.0 mm
18:14 24.3 °C 10.3 °C 1022.0 hPa ESE 12.2 km/h 24.1 km/h 41.4% 0.0 mm
18:19 24.2 °C 10.3 °C 1022.0 hPa ESE 12.5 km/h 22.5 km/h 41.5% 0.0 mm
18:24 24.2 °C 10.5 °C 1022.0 hPa ESE 13 km/h 22.5 km/h 42% 0.0 mm
18:29 24.4 °C 10.6 °C 1022.0 hPa ESE 12.6 km/h 22 km/h 41.7% 0.0 mm
18:34 24.4 °C 10.3 °C 1022.0 hPa ESE 11.9 km/h 24.1 km/h 41% 0.0 mm
18:39 24.2 °C 10.2 °C 1022.0 hPa ESE 12.5 km/h 29.8 km/h 41.2% 0.0 mm
18:44 23.7 °C 10.1 °C 1022.0 hPa ESE 13.7 km/h 30.6 km/h 42.1% 0.0 mm
18:49 23.7 °C 10.1 °C 1022.0 hPa ESE 13.4 km/h 25.7 km/h 42.3% 0.0 mm
18:54 23.7 °C 10 °C 1021.9 hPa ESE 13 km/h 20.9 km/h 42% 0.0 mm
18:59 23.6 °C 10.2 °C 1021.9 hPa ESE 13.7 km/h 24.5 km/h 42.8% 0.0 mm
19:04 23.5 °C 10.2 °C 1021.9 hPa ESE 14.8 km/h 24.1 km/h 43% 0.0 mm
19:09 23.6 °C 10.3 °C 1021.9 hPa ESE 13.9 km/h 22.5 km/h 43% 0.0 mm
19:14 23.6 °C 10.3 °C 1021.9 hPa ESE 12.2 km/h 20.4 km/h 43% 0.0 mm
19:19 23.6 °C 10.2 °C 1021.9 hPa ESE 11.8 km/h 22.2 km/h 43% 0.0 mm
19:24 23.4 °C 10.1 °C 1021.9 hPa ESE 11.1 km/h 22.5 km/h 43% 0.0 mm
19:29 23.3 °C 10 °C 1021.9 hPa ESE 11.8 km/h 22.5 km/h 43.1% 0.0 mm
19:34 23.2 °C 9.9 °C 1021.9 hPa ESE 13 km/h 20.9 km/h 43% 0.0 mm
19:39 23 °C 10 °C 1021.9 hPa ESE 13.3 km/h 20.9 km/h 43.6% 0.0 mm
19:44 22.9 °C 10 °C 1021.9 hPa Este 13.7 km/h 20.4 km/h 43.9% 0.0 mm
19:49 22.8 °C 9.6 °C 1022.0 hPa Este 12.7 km/h 22.2 km/h 43.1% 0.0 mm
19:54 22.8 °C 9.6 °C 1022.0 hPa ESE 11.1 km/h 22.5 km/h 43% 0.0 mm
19:59 22.8 °C 9.5 °C 1022.0 hPa ESE 11.4 km/h 22.2 km/h 43% 0.0 mm
20:04 22.6 °C 9.4 °C 1022.1 hPa Este 11.9 km/h 22.5 km/h 43% 0.0 mm
20:09 22.6 °C 9.4 °C 1022.1 hPa Este 11.6 km/h 20.9 km/h 43% 0.0 mm
20:14 22.6 °C 9.5 °C 1022.1 hPa ESE 11.1 km/h 22.5 km/h 43.3% 0.0 mm
20:19 22.4 °C 9.6 °C 1022.2 hPa ESE 11.4 km/h 22.5 km/h 44% 0.0 mm
20:24 22.3 °C 9.8 °C 1022.2 hPa ESE 11.9 km/h 22.5 km/h 45.1% 0.0 mm
20:29 22.2 °C 10 °C 1022.2 hPa Este 11.3 km/h 16.7 km/h 45.8% 0.0 mm
20:34 22.1 °C 10.2 °C 1022.2 hPa ESE 10.3 km/h 17.2 km/h 46.6% 0.0 mm
20:39 21.9 °C 10.4 °C 1022.2 hPa ESE 10.3 km/h 19.8 km/h 47.9% 0.0 mm
20:44 21.8 °C 10.7 °C 1022.2 hPa Este 10.3 km/h 19.3 km/h 49% 0.0 mm
20:49 21.7 °C 10.7 °C 1022.4 hPa ESE 10.2 km/h 17.7 km/h 49.7% 0.0 mm
20:54 21.4 °C 10.8 °C 1022.4 hPa ESE 10 km/h 20.9 km/h 50.8% 0.0 mm
20:59 21.3 °C 11 °C 1022.4 hPa ESE 10.7 km/h 20.9 km/h 51.9% 0.0 mm
21:04 21.2 °C 11 °C 1022.5 hPa Este 11.9 km/h 18.5 km/h 52% 0.0 mm
21:09 21.2 °C 11.1 °C 1022.5 hPa Este 10.6 km/h 19.3 km/h 52.6% 0.0 mm
21:14 21.1 °C 11.2 °C 1022.5 hPa Este 8.4 km/h 16.1 km/h 53.3% 0.0 mm
21:19 20.9 °C 11.2 °C 1022.6 hPa Este 7.8 km/h 14.8 km/h 54.1% 0.0 mm
21:24 20.7 °C 11.4 °C 1022.6 hPa Este 6.9 km/h 14.5 km/h 55% 0.0 mm
21:29 20.7 °C 11.4 °C 1022.6 hPa Este 6.9 km/h 12.9 km/h 55.3% 0.0 mm
21:34 20.5 °C 11.5 °C 1022.8 hPa Este 6.9 km/h 11.1 km/h 56% 0.0 mm
21:39 20.4 °C 11.6 °C 1022.8 hPa ENE 6.8 km/h 13.7 km/h 56.9% 0.0 mm
21:44 20.3 °C 11.6 °C 1022.8 hPa Este 6.5 km/h 14.5 km/h 57.5% 0.0 mm
21:49 20.2 °C 11.7 °C 1023.0 hPa ENE 6.2 km/h 12.9 km/h 58% 0.0 mm
21:54 20.1 °C 11.8 °C 1023.0 hPa ENE 5.8 km/h 11.1 km/h 58.8% 0.0 mm
21:59 19.9 °C 11.7 °C 1023.0 hPa Este 5.5 km/h 11.3 km/h 59% 0.0 mm
22:04 19.8 °C 11.8 °C 1023.1 hPa ESE 5 km/h 9.7 km/h 60% 0.0 mm
22:09 19.7 °C 11.9 °C 1023.1 hPa Este 5 km/h 11.1 km/h 60.6% 0.0 mm
22:14 19.7 °C 12 °C 1023.1 hPa NE 5 km/h 11.3 km/h 61.1% 0.0 mm
22:19 19.6 °C 12.2 °C 1023.2 hPa NE 5.5 km/h 13 km/h 62.1% 0.0 mm
22:24 19.4 °C 12.2 °C 1023.2 hPa NE 6.5 km/h 12.9 km/h 63% 0.0 mm
22:29 19.3 °C 12.3 °C 1023.2 hPa NE 6.9 km/h 11.9 km/h 63.9% 0.0 mm
22:34 19.2 °C 12.3 °C 1023.5 hPa NE 7.6 km/h 13.7 km/h 64.4% 0.0 mm
22:39 19.1 °C 12.4 °C 1023.5 hPa NE 7.1 km/h 14.5 km/h 65% 0.0 mm
22:44 19 °C 12.5 °C 1023.5 hPa ENE 6.5 km/h 11.9 km/h 65.9% 0.0 mm
22:49 18.8 °C 12.4 °C 1023.8 hPa NE 6.6 km/h 11.9 km/h 66.4% 0.0 mm
22:54 18.7 °C 12.5 °C 1023.8 hPa NE 6.9 km/h 13 km/h 67% 0.0 mm
22:59 18.6 °C 12.5 °C 1023.8 hPa NE 7.2 km/h 13 km/h 67.6% 0.0 mm
23:04 18.5 °C 12.5 °C 1023.9 hPa NE 7.6 km/h 12.9 km/h 68% 0.0 mm
23:09 18.5 °C 12.5 °C 1023.9 hPa NE 7.2 km/h 11.3 km/h 68% 0.0 mm
23:14 18.4 °C 12.4 °C 1023.9 hPa NE 6.5 km/h 11.3 km/h 68% 0.0 mm
23:19 18.4 °C 12.5 °C 1024.0 hPa NE 6.5 km/h 11.3 km/h 68.5% 0.0 mm
23:24 18.4 °C 12.6 °C 1024.0 hPa NE 6.5 km/h 11.9 km/h 69% 0.0 mm
23:29 18.4 °C 12.6 °C 1024.0 hPa NE 6.6 km/h 11.3 km/h 69% 0.0 mm
23:34 18.4 °C 12.6 °C 1024.0 hPa NE 6.9 km/h 10.3 km/h 69% 0.0 mm
23:39 18.4 °C 12.6 °C 1023.9 hPa NE 6.5 km/h 11.9 km/h 69% 0.0 mm
23:44 18.3 °C 12.5 °C 1023.9 hPa NE 5.8 km/h 11.3 km/h 69% 0.0 mm
23:49 18.2 °C 12.6 °C 1024.0 hPa NE 6.2 km/h 11.3 km/h 69.8% 0.0 mm
23:54 18.2 °C 12.6 °C 1024.0 hPa NE 6.9 km/h 10 km/h 70% 0.0 mm
23:59 18.1 °C 12.5 °C 1024.0 hPa NE 6.7 km/h 11.1 km/h 70% 0.0 mm
Murcia-Puente Tocinos, Espa?a
Compliments of Weather Underground - 3.25 mb

La estación de MeteoMurcia.com, publica sus datos en los siguientes proyectos:

Weather Underground PWS IMURCIAP2 Meteoclimatic www.awekas.at

W3Counter
Web Analytics